Time;durP1;ratioP1;P1;durP2;ratioP2;P2;SDS_P1;SDS_P2;PMS_P1;PMS_P2;Temp;Humidity;BMP_temperature;BMP_pressure;BME280_temperature;BME280_humidity;BME280_pressure;Samples;Min_cycle;Max_cycle;Signal;HPM_P1;HPM_P2
2023/06/29 00:01:17;;;;;;;15.25;11.07;;;21.60;99.90;;;;;;5026165;28;20045;-42
2023/06/29 00:03:43;;;;;;;12.45;11.15;;;21.50;99.90;;;;;;5026203;28;20024;-42
2023/06/29 00:06:08;;;;;;;13.07;11.57;;;21.40;99.90;;;;;;5027280;28;20871;-42
2023/06/29 00:08:35;;;;;;;13.55;11.93;;;21.40;99.90;;;;;;5025816;28;20345;-42
2023/06/29 00:11:02;;;;;;;14.00;12.13;;;21.30;99.90;;;;;;5027154;28;20033;-42
2023/06/29 00:13:31;;;;;;;14.10;11.15;;;21.30;99.90;;;;;;5026807;28;20104;-42
2023/06/29 00:16:00;;;;;;;12.23;10.93;;;21.30;99.90;;;;;;5026427;28;20053;-42
2023/06/29 00:18:28;;;;;;;13.65;11.65;;;21.20;99.90;;;;;;5026535;28;20075;-43
2023/06/29 00:20:54;;;;;;;14.93;11.75;;;21.20;99.90;;;;;;5026602;28;20104;-42
2023/06/29 00:23:20;;;;;;;14.30;11.82;;;21.20;99.90;;;;;;5025856;28;20026;-42
2023/06/29 00:25:47;;;;;;;14.38;12.00;;;21.10;99.90;;;;;;5026382;28;20397;-42
2023/06/29 00:28:13;;;;;;;15.00;12.05;;;21.10;99.90;;;;;;5026820;28;20556;-41
2023/06/29 00:30:38;;;;;;;13.20;11.50;;;21.10;99.90;;;;;;5025549;28;20030;-41
2023/06/29 00:33:04;;;;;;;13.40;11.70;;;21.00;99.90;;;;;;5027005;28;20039;-42
2023/06/29 00:35:31;;;;;;;15.77;12.77;;;21.00;99.90;;;;;;5026531;28;20053;-42
2023/06/29 00:37:57;;;;;;;14.02;12.00;;;21.00;99.90;;;;;;5026045;28;20105;-41
2023/06/29 00:40:22;;;;;;;14.45;12.32;;;21.00;99.90;;;;;;5025970;28;20733;-42
2023/06/29 00:42:48;;;;;;;14.27;12.32;;;20.90;99.90;;;;;;5025756;28;20449;-42
2023/06/29 00:45:15;;;;;;;16.48;13.32;;;20.90;99.90;;;;;;5025131;28;20025;-42
2023/06/29 00:47:41;;;;;;;14.30;12.75;;;20.90;99.90;;;;;;5025182;28;20022;-43
2023/06/29 00:50:08;;;;;;;14.35;12.35;;;20.90;99.90;;;;;;5025764;28;20120;-43
2023/06/29 00:52:34;;;;;;;16.70;12.90;;;20.90;99.90;;;;;;5024646;28;20025;-43
2023/06/29 00:55:00;;;;;;;16.90;13.07;;;20.90;99.90;;;;;;5025508;28;20560;-43
2023/06/29 00:57:29;;;;;;;13.80;12.05;;;20.90;99.90;;;;;;5024260;28;20488;-43
2023/06/29 00:59:59;;;;;;;13.15;11.45;;;20.80;99.90;;;;;;5025120;28;20030;-43
2023/06/29 01:02:25;;;;;;;15.40;12.68;;;20.80;99.90;;;;;;5025757;28;20499;-43
2023/06/29 01:04:51;;;;;;;14.98;12.90;;;20.70;99.90;;;;;;5024372;28;20112;-43
2023/06/29 01:07:48;;;;;;;14.70;12.45;;;20.70;99.90;;;;;;5025567;28;20017;-43
2023/06/29 01:10:18;;;;;;;16.88;13.02;;;20.80;99.90;;;;;;5024131;28;20065;-43
2023/06/29 01:12:46;;;;;;;15.57;12.30;;;20.80;99.90;;;;;;5024137;28;20532;-43
2023/06/29 01:15:12;;;;;;;16.70;13.30;;;20.80;99.90;;;;;;5025276;28;20714;-42
2023/06/29 01:17:39;;;;;;;16.45;13.57;;;20.80;99.90;;;;;;5024832;28;20036;-43
2023/06/29 01:20:11;;;;;;;14.25;12.50;;;20.90;99.90;;;;;;5024199;28;20041;-43
2023/06/29 01:22:46;;;;;;;14.68;13.07;;;20.80;99.90;;;;;;5024783;28;20104;-43
2023/06/29 01:25:12;;;;;;;15.95;13.45;;;20.80;99.90;;;;;;5025602;28;20025;-43
2023/06/29 01:27:47;;;;;;;16.55;13.48;;;20.90;99.90;;;;;;5023734;28;20826;-43
2023/06/29 01:30:13;;;;;;;19.10;13.63;;;20.90;99.90;;;;;;5024890;28;20119;-43
2023/06/29 01:32:39;;;;;;;17.35;14.63;;;20.90;99.90;;;;;;5023872;28;20049;-43
2023/06/29 01:35:07;;;;;;;16.77;14.20;;;21.00;99.90;;;;;;5024895;28;20033;-43
2023/06/29 01:37:52;;;;;;;17.48;13.98;;;20.90;99.90;;;;;;5024727;28;20389;-43
2023/06/29 01:40:23;;;;;;;17.75;14.52;;;20.90;99.90;;;;;;5004679;28;20026;-43
2023/06/29 01:42:50;;;;;;;18.55;15.65;;;21.00;99.90;;;;;;5020520;28;20036;-43
2023/06/29 01:45:19;;;;;;;17.40;14.65;;;21.00;99.90;;;;;;5024800;28;20029;-43
2023/06/29 01:47:51;;;;;;;18.75;14.63;;;21.00;99.90;;;;;;5023591;28;20033;-42
2023/06/29 01:50:17;;;;;;;17.65;14.75;;;21.00;99.90;;;;;;5024754;28;20052;-42
2023/06/29 01:52:44;;;;;;;19.05;15.25;;;21.00;99.90;;;;;;5023952;28;20479;-42
2023/06/29 01:55:12;;;;;;;20.00;15.20;;;21.00;99.90;;;;;;5024074;28;20025;-42
2023/06/29 01:57:38;;;;;;;19.90;15.52;;;21.00;99.90;;;;;;5024195;28;20488;-42
2023/06/29 02:00:05;;;;;;;17.15;14.77;;;21.00;99.90;;;;;;5024443;28;20496;-42
2023/06/29 02:02:31;;;;;;;21.08;16.05;;;21.00;99.90;;;;;;5024382;28;20029;-43
2023/06/29 02:04:56;;;;;;;20.45;15.52;;;21.10;99.90;;;;;;5025630;28;20372;-43
2023/06/29 02:07:22;;;;;;;21.60;16.70;;;21.00;99.90;;;;;;5024414;28;20034;-42
2023/06/29 02:09:48;;;;;;;19.15;14.93;;;21.10;99.90;;;;;;5023798;28;20067;-43
2023/06/29 02:12:16;;;;;;;18.98;15.50;;;21.10;99.90;;;;;;5024933;28;20037;-43
2023/06/29 02:14:41;;;;;;;18.20;15.27;;;21.10;99.90;;;;;;5024064;28;20083;-43
2023/06/29 02:17:07;;;;;;;18.25;15.75;;;21.10;99.90;;;;;;5023951;28;20029;-42
2023/06/29 02:19:33;;;;;;;18.40;16.13;;;21.20;99.90;;;;;;5024825;28;20404;-42
2023/06/29 02:21:59;;;;;;;19.15;15.63;;;21.10;99.90;;;;;;5024444;28;20423;-42
2023/06/29 02:24:24;;;;;;;17.90;15.70;;;21.10;99.90;;;;;;5023553;28;20121;-42
2023/06/29 02:26:50;;;;;;;17.80;15.90;;;21.10;99.90;;;;;;5024425;28;20057;-42
2023/06/29 02:29:15;;;;;;;20.50;15.55;;;21.20;99.90;;;;;;5024093;28;20065;-43
2023/06/29 02:31:41;;;;;;;19.42;15.73;;;21.10;99.90;;;;;;5024098;28;20025;-42
2023/06/29 02:34:07;;;;;;;18.77;16.17;;;21.20;99.90;;;;;;5024632;28;20037;-42
2023/06/29 02:36:32;;;;;;;18.45;16.20;;;21.20;99.90;;;;;;5022697;28;20029;-43
2023/06/29 02:38:58;;;;;;;20.20;16.83;;;21.20;99.90;;;;;;5023928;28;20022;-42
2023/06/29 02:41:23;;;;;;;20.88;16.30;;;21.10;99.90;;;;;;5024117;28;20042;-42
2023/06/29 02:43:49;;;;;;;16.52;14.80;;;21.10;99.90;;;;;;5023159;28;20548;-42
2023/06/29 02:46:24;;;;;;;17.10;15.27;;;21.10;99.90;;;;;;5024238;28;20458;-42
2023/06/29 02:48:49;;;;;;;17.85;15.57;;;21.10;99.90;;;;;;5023864;28;20026;-41
2023/06/29 02:51:15;;;;;;;18.50;16.40;;;21.20;99.90;;;;;;5023714;28;20027;-41
2023/06/29 02:53:40;;;;;;;19.23;16.75;;;21.10;99.90;;;;;;5024208;28;20017;-41
2023/06/29 02:56:06;;;;;;;18.98;16.25;;;21.20;99.90;;;;;;5024103;28;20067;-41
2023/06/29 02:58:31;;;;;;;18.23;15.95;;;21.10;99.90;;;;;;5023834;28;20112;-42
2023/06/29 03:01:00;;;;;;;17.60;15.70;;;21.10;99.90;;;;;;5023852;28;20168;-41
2023/06/29 03:03:25;;;;;;;18.33;16.08;;;21.20;99.90;;;;;;5024327;28;20041;-42
2023/06/29 03:05:51;;;;;;;19.33;15.48;;;21.10;99.90;;;;;;5022883;28;20034;-42
2023/06/29 03:08:16;;;;;;;19.33;15.63;;;21.20;99.90;;;;;;5023642;28;20036;-42
2023/06/29 03:10:42;;;;;;;20.08;16.63;;;21.20;99.90;;;;;;5022974;28;20072;-43
2023/06/29 03:13:07;;;;;;;18.77;15.55;;;21.20;99.90;;;;;;5022415;28;20017;-42
2023/06/29 03:15:33;;;;;;;19.38;15.88;;;21.20;99.90;;;;;;5023091;28;20033;-42
2023/06/29 03:17:59;;;;;;;18.85;16.17;;;21.20;99.90;;;;;;5023094;28;20026;-42
2023/06/29 03:20:25;;;;;;;19.08;16.08;;;21.20;99.90;;;;;;5023228;28;20112;-42
2023/06/29 03:22:50;;;;;;;18.58;15.73;;;21.20;99.90;;;;;;5023843;28;20112;-42
2023/06/29 03:25:16;;;;;;;17.33;15.02;;;21.20;99.90;;;;;;5021819;28;20840;-42
2023/06/29 03:27:42;;;;;;;18.95;16.30;;;21.20;99.90;;;;;;5024922;28;20132;-43
2023/06/29 03:30:08;;;;;;;19.65;16.55;;;21.20;99.90;;;;;;5027030;28;20382;-42
2023/06/29 03:32:33;;;;;;;18.80;15.43;;;21.20;99.90;;;;;;5025863;28;20017;-43
2023/06/29 03:34:59;;;;;;;20.08;16.38;;;21.20;99.90;;;;;;5027889;28;20029;-43
2023/06/29 03:37:28;;;;;;;17.90;15.65;;;21.20;99.90;;;;;;5026827;28;20120;-42
2023/06/29 03:39:53;;;;;;;18.73;16.42;;;21.30;99.90;;;;;;5026565;28;20029;-43
2023/06/29 03:42:25;;;;;;;19.40;16.92;;;21.20;99.90;;;;;;5026899;28;20021;-42
2023/06/29 03:44:51;;;;;;;18.05;15.45;;;21.20;99.90;;;;;;5027085;28;20083;-42
2023/06/29 03:47:17;;;;;;;18.33;16.05;;;21.20;99.90;;;;;;5026370;28;20025;-43
2023/06/29 03:49:43;;;;;;;21.23;16.40;;;21.30;99.90;;;;;;5025670;28;20057;-43
2023/06/29 03:52:08;;;;;;;19.67;16.73;;;21.20;99.90;;;;;;5027129;28;20018;-43
2023/06/29 03:54:34;;;;;;;18.38;15.60;;;21.30;99.90;;;;;;5026040;28;20036;-43
2023/06/29 03:57:01;;;;;;;17.92;15.75;;;21.30;99.90;;;;;;5026356;28;20045;-42
2023/06/29 03:59:28;;;;;;;18.98;15.75;;;21.30;99.90;;;;;;5026022;28;20477;-42
2023/06/29 04:01:53;;;;;;;18.65;15.57;;;21.20;99.90;;;;;;5026159;28;20100;-44
2023/06/29 04:04:22;;;;;;;18.48;15.95;;;21.30;99.90;;;;;;5027238;28;20116;-42
2023/06/29 04:06:47;;;;;;;18.45;16.45;;;21.30;99.90;;;;;;5026455;28;20018;-42
2023/06/29 04:09:13;;;;;;;20.65;16.98;;;21.30;99.90;;;;;;5026129;28;20037;-43
2023/06/29 04:11:39;;;;;;;18.83;15.82;;;21.30;99.90;;;;;;5026075;28;20024;-43
2023/06/29 04:14:04;;;;;;;18.00;15.60;;;21.30;99.90;;;;;;5026347;28;20048;-42
2023/06/29 04:16:30;;;;;;;18.80;15.68;;;21.30;99.90;;;;;;5025673;28;20031;-44
2023/06/29 04:18:55;;;;;;;17.45;15.55;;;21.30;99.90;;;;;;5026220;28;20014;-43
2023/06/29 04:21:21;;;;;;;19.13;15.70;;;21.30;99.90;;;;;;5025509;28;20108;-43
2023/06/29 04:23:46;;;;;;;18.30;15.75;;;21.30;99.90;;;;;;5026005;28;20568;-42
2023/06/29 04:26:13;;;;;;;17.45;15.52;;;21.30;99.90;;;;;;5026485;28;20068;-42
2023/06/29 04:28:44;;;;;;;18.17;15.18;;;21.30;99.90;;;;;;5024761;28;20017;-42
2023/06/29 04:31:09;;;;;;;17.63;14.93;;;21.30;99.90;;;;;;5026144;28;20830;-42
2023/06/29 04:33:35;;;;;;;18.77;15.05;;;21.30;99.90;;;;;;5026009;28;20022;-42
2023/06/29 04:36:00;;;;;;;15.77;14.07;;;21.30;99.90;;;;;;5025584;28;20025;-43
2023/06/29 04:38:27;;;;;;;17.55;15.65;;;21.30;99.90;;;;;;5025398;28;20093;-42
2023/06/29 04:41:03;;;;;;;16.98;14.95;;;21.40;99.90;;;;;;5024401;28;20599;-42
2023/06/29 04:43:36;;;;;;;16.15;14.45;;;21.40;99.90;;;;;;5025845;28;20026;-43
2023/06/29 04:46:03;;;;;;;16.65;14.75;;;21.40;99.90;;;;;;5026430;28;20083;-42
2023/06/29 04:48:46;;;;;;;15.40;13.73;;;21.40;99.90;;;;;;5025884;28;20025;-42
2023/06/29 04:51:17;;;;;;;16.33;13.80;;;21.40;99.90;;;;;;5025159;28;20505;-42
2023/06/29 04:53:43;;;;;;;17.30;14.98;;;21.50;99.90;;;;;;5025461;28;20053;-43
2023/06/29 04:56:08;;;;;;;18.00;14.80;;;21.50;99.90;;;;;;5025867;28;20126;-42
2023/06/29 04:58:34;;;;;;;17.65;14.98;;;21.50;99.90;;;;;;5025221;28;20032;-41
2023/06/29 05:00:59;;;;;;;18.25;14.60;;;21.50;99.90;;;;;;5026183;28;20488;-42
2023/06/29 05:03:26;;;;;;;16.73;14.82;;;21.50;99.90;;;;;;5025672;28;20057;-42
2023/06/29 05:05:55;;;;;;;19.70;14.77;;;21.50;99.90;;;;;;5024507;28;20045;-42
2023/06/29 05:08:26;;;;;;;16.00;14.30;;;21.50;99.90;;;;;;5024985;28;20021;-42
2023/06/29 05:10:52;;;;;;;15.60;13.73;;;21.50;99.90;;;;;;5024706;28;20037;-42
2023/06/29 05:13:18;;;;;;;17.05;14.77;;;21.60;99.90;;;;;;5025371;28;20025;-42
2023/06/29 05:15:47;;;;;;;17.58;14.32;;;21.60;99.90;;;;;;5024489;28;20025;-42
2023/06/29 05:18:13;;;;;;;15.90;13.75;;;21.60;99.90;;;;;;5024785;28;20029;-42
2023/06/29 05:20:39;;;;;;;15.48;13.77;;;21.60;99.90;;;;;;5025447;28;20104;-42
2023/06/29 05:23:04;;;;;;;15.70;14.10;;;21.60;99.90;;;;;;5024954;28;20039;-42
2023/06/29 05:25:30;;;;;;;15.32;13.27;;;21.60;99.90;;;;;;5024690;28;20017;-42
2023/06/29 05:27:56;;;;;;;16.02;13.25;;;21.60;99.90;;;;;;5025568;28;20480;-42
2023/06/29 05:30:21;;;;;;;17.42;13.20;;;21.60;99.90;;;;;;5024773;28;20052;-42
2023/06/29 05:32:47;;;;;;;14.90;12.32;;;21.60;99.90;;;;;;5030484;28;20021;-43
2023/06/29 05:35:13;;;;;;;17.92;13.68;;;21.60;99.90;;;;;;5031858;28;20083;-42
2023/06/29 05:37:38;;;;;;;18.05;14.27;;;21.60;99.90;;;;;;5025145;28;20045;-42
2023/06/29 05:40:08;;;;;;;16.95;13.18;;;21.70;99.90;;;;;;5023622;28;20029;-42
2023/06/29 05:42:34;;;;;;;15.27;12.93;;;21.70;99.90;;;;;;5022811;28;20030;-43
2023/06/29 05:44:59;;;;;;;15.13;13.23;;;21.70;99.90;;;;;;5023579;28;20033;-47
2023/06/29 05:47:25;;;;;;;19.25;14.57;;;21.80;99.90;;;;;;5022849;28;20526;-43
2023/06/29 05:49:51;;;;;;;19.70;15.20;;;21.90;99.90;;;;;;5023758;28;20940;-42
2023/06/29 05:52:16;;;;;;;15.95;13.77;;;21.90;99.90;;;;;;5013064;28;20064;-43
2023/06/29 05:54:42;;;;;;;18.85;14.13;;;22.00;99.90;;;;;;5023244;28;20045;-42
2023/06/29 05:57:08;;;;;;;16.70;13.75;;;22.00;99.90;;;;;;5023338;28;20045;-43
2023/06/29 05:59:33;;;;;;;19.15;15.07;;;22.00;99.90;;;;;;5023755;28;20032;-42
2023/06/29 06:01:59;;;;;;;19.17;15.73;;;22.10;99.90;;;;;;5022890;28;20100;-42
2023/06/29 06:04:24;;;;;;;17.05;14.02;;;22.10;99.90;;;;;;5023593;28;20040;-43
2023/06/29 06:06:50;;;;;;;17.73;14.18;;;22.10;99.90;;;;;;5022395;28;20033;-42
2023/06/29 06:09:16;;;;;;;17.80;15.02;;;22.10;99.90;;;;;;5024219;28;20481;-42
2023/06/29 06:11:41;;;;;;;17.08;14.20;;;22.20;99.90;;;;;;5023469;28;20067;-43
2023/06/29 06:14:07;;;;;;;16.65;13.57;;;22.20;99.90;;;;;;5022684;28;20021;-42
2023/06/29 06:16:33;;;;;;;16.73;14.52;;;22.20;99.90;;;;;;5023298;28;20179;-42
2023/06/29 06:18:58;;;;;;;17.67;14.75;;;22.30;99.90;;;;;;5022981;28;20116;-42
2023/06/29 06:21:24;;;;;;;17.90;15.18;;;22.30;99.90;;;;;;5022430;28;20117;-42
2023/06/29 06:23:51;;;;;;;18.85;15.32;;;22.30;99.90;;;;;;5023659;28;20067;-43
2023/06/29 06:26:17;;;;;;;18.88;14.40;;;22.30;99.90;;;;;;5023606;28;20037;-42
2023/06/29 06:28:43;;;;;;;17.55;14.15;;;22.30;99.90;;;;;;5021859;28;20029;-42
2023/06/29 06:31:08;;;;;;;16.92;14.00;;;22.30;99.90;;;;;;5023877;28;20369;-42
2023/06/29 06:33:34;;;;;;;17.63;14.43;;;22.30;99.90;;;;;;5023324;28;20500;-42
2023/06/29 06:36:00;;;;;;;17.63;14.52;;;22.30;99.90;;;;;;5023237;28;20021;-42
2023/06/29 06:38:25;;;;;;;15.27;13.20;;;22.20;99.90;;;;;;5024253;28;20021;-43
2023/06/29 06:40:51;;;;;;;16.88;14.52;;;22.20;99.90;;;;;;5023784;28;20109;-42
2023/06/29 06:43:17;;;;;;;16.20;13.95;;;22.30;99.90;;;;;;5022773;28;20057;-43
2023/06/29 06:45:43;;;;;;;16.33;14.02;;;22.30;99.90;;;;;;5024010;28;20028;-42
2023/06/29 06:48:10;;;;;;;18.10;14.05;;;22.30;99.90;;;;;;5023218;28;20030;-42
2023/06/29 06:50:35;;;;;;;18.77;13.82;;;22.30;99.90;;;;;;5022957;28;20040;-42
2023/06/29 06:53:01;;;;;;;17.45;13.35;;;22.30;99.90;;;;;;5023482;28;20021;-42
2023/06/29 06:55:29;;;;;;;17.23;13.43;;;22.40;99.90;;;;;;5023373;28;20035;-43
2023/06/29 06:57:54;;;;;;;15.50;12.88;;;22.50;99.90;;;;;;5022765;28;20028;-43
2023/06/29 07:00:20;;;;;;;17.40;13.80;;;22.50;99.90;;;;;;5023730;28;20029;-42
2023/06/29 07:02:46;;;;;;;19.00;13.68;;;22.50;99.90;;;;;;5024700;28;20558;-42
2023/06/29 07:05:11;;;;;;;16.08;13.45;;;22.60;99.90;;;;;;5027352;28;20416;-43
2023/06/29 07:07:37;;;;;;;18.85;13.70;;;22.60;99.90;;;;;;5027716;28;20024;-43
2023/06/29 07:10:03;;;;;;;17.80;14.13;;;22.60;99.90;;;;;;5027405;28;20127;-43
2023/06/29 07:12:29;;;;;;;18.02;14.40;;;22.60;99.90;;;;;;5027939;28;20021;-43
2023/06/29 07:14:54;;;;;;;19.45;14.30;;;22.60;99.90;;;;;;5027368;28;20083;-42
2023/06/29 07:17:20;;;;;;;20.30;15.20;;;22.60;99.90;;;;;;5026608;28;20481;-43
2023/06/29 07:19:46;;;;;;;23.05;16.90;;;22.70;99.90;;;;;;5027311;28;20029;-42
2023/06/29 07:22:14;;;;;;;19.67;14.90;;;22.80;99.90;;;;;;5027692;28;20567;-42
2023/06/29 07:24:40;;;;;;;17.48;13.77;;;22.80;99.90;;;;;;5026230;28;20040;-43
2023/06/29 07:27:06;;;;;;;17.30;13.23;;;22.80;99.90;;;;;;5027250;28;20033;-42
2023/06/29 07:29:33;;;;;;;20.00;16.15;;;22.80;99.90;;;;;;5026347;28;20056;-42
2023/06/29 07:31:58;;;;;;;16.88;14.35;;;22.90;99.90;;;;;;5026650;28;20384;-41
2023/06/29 07:34:24;;;;;;;19.85;15.20;;;22.90;99.90;;;;;;5027024;28;20033;-42
2023/06/29 07:36:50;;;;;;;19.05;14.55;;;22.90;99.90;;;;;;5027229;28;20163;-42
2023/06/29 07:39:16;;;;;;;16.45;13.50;;;22.90;99.90;;;;;;5026076;28;20473;-42
2023/06/29 07:41:42;;;;;;;15.48;13.13;;;23.00;99.90;;;;;;5026523;28;20512;-41
2023/06/29 07:44:11;;;;;;;17.55;13.75;;;23.00;99.90;;;;;;5026836;28;20047;-42
2023/06/29 07:46:37;;;;;;;18.58;14.57;;;23.10;99.90;;;;;;5026256;28;20423;-42
2023/06/29 07:49:02;;;;;;;19.15;14.35;;;23.20;99.90;;;;;;5026557;28;20038;-42
2023/06/29 07:51:32;;;;;;;18.60;13.65;;;23.20;99.90;;;;;;5027244;28;20045;-42
2023/06/29 07:53:58;;;;;;;19.05;15.43;;;23.30;99.90;;;;;;5025957;28;20029;-43
2023/06/29 07:56:24;;;;;;;17.25;14.90;;;23.30;99.90;;;;;;5026685;28;20049;-42
2023/06/29 07:58:49;;;;;;;16.45;12.93;;;23.30;99.90;;;;;;5026608;28;20032;-42
2023/06/29 08:01:17;;;;;;;18.13;14.60;;;23.40;99.90;;;;;;5025664;28;20441;-42
2023/06/29 08:03:44;;;;;;;16.85;14.20;;;23.50;99.90;;;;;;5026619;28;20380;-42
2023/06/29 08:06:10;;;;;;;15.82;13.30;;;23.50;99.90;;;;;;5025619;28;20472;-42
2023/06/29 08:08:36;;;;;;;16.40;12.75;;;23.50;99.90;;;;;;5026249;28;20476;-42
2023/06/29 08:11:02;;;;;;;16.48;12.93;;;23.60;99.90;;;;;;5026051;28;20075;-43
2023/06/29 08:13:27;;;;;;;15.85;13.07;;;23.70;99.90;;;;;;5025416;28;20552;-42
2023/06/29 08:15:53;;;;;;;16.55;13.05;;;23.70;99.90;;;;;;5025839;28;20029;-43
2023/06/29 08:18:18;;;;;;;19.65;14.85;;;23.80;99.90;;;;;;5025929;28;20033;-42
2023/06/29 08:20:46;;;;;;;17.13;14.13;;;23.80;99.90;;;;;;5025343;28;20115;-42
2023/06/29 08:23:12;;;;;;;17.10;14.15;;;23.90;99.90;;;;;;5025323;28;20121;-43
2023/06/29 08:25:38;;;;;;;17.17;13.80;;;24.00;99.90;;;;;;5026020;28;20112;-42
2023/06/29 08:28:03;;;;;;;17.08;14.43;;;24.10;99.90;;;;;;5026196;28;20672;-42
2023/06/29 08:30:29;;;;;;;17.35;13.70;;;24.10;99.90;;;;;;5025916;28;20048;-43
2023/06/29 08:32:54;;;;;;;19.05;15.18;;;24.20;99.90;;;;;;5025703;28;20017;-42
2023/06/29 08:35:20;;;;;;;18.83;14.57;;;24.30;99.90;;;;;;5025923;28;20025;-44
2023/06/29 08:37:46;;;;;;;17.63;14.27;;;24.40;99.90;;;;;;5026466;28;20893;-43
2023/06/29 08:40:12;;;;;;;15.43;13.07;;;24.40;99.90;;;;;;5026086;28;20029;-43
2023/06/29 08:42:39;;;;;;;17.00;14.30;;;24.50;99.90;;;;;;5025440;28;20381;-42
2023/06/29 08:45:06;;;;;;;18.27;13.57;;;24.50;99.90;;;;;;5026160;28;20044;-43
2023/06/29 08:47:36;;;;;;;14.77;12.43;;;24.60;99.90;;;;;;5025541;28;20499;-42
2023/06/29 08:50:04;;;;;;;15.30;12.93;;;24.60;99.90;;;;;;5025777;28;20437;-43
2023/06/29 08:52:34;;;;;;;15.93;13.95;;;24.70;99.90;;;;;;5024326;28;20057;-43
2023/06/29 08:55:01;;;;;;;16.20;13.20;;;24.70;99.90;;;;;;5025926;28;20063;-44
2023/06/29 08:57:32;;;;;;;17.83;13.75;;;24.70;99.90;;;;;;5024692;28;20045;-42
2023/06/29 09:00:02;;;;;;;18.73;14.73;;;24.70;99.90;;;;;;5025725;28;20408;-43
2023/06/29 09:02:28;;;;;;;18.20;13.82;;;24.60;99.90;;;;;;5025411;28;20033;-42
2023/06/29 09:04:55;;;;;;;14.93;12.43;;;24.50;99.90;;;;;;5024820;28;20030;-42
2023/06/29 09:07:23;;;;;;;17.05;14.10;;;24.50;99.90;;;;;;5025147;28;20040;-42
2023/06/29 09:09:49;;;;;;;13.45;12.00;;;24.50;99.90;;;;;;5025011;28;20087;-43
2023/06/29 09:12:15;;;;;;;15.35;13.43;;;24.50;99.90;;;;;;5025166;28;20030;-43
2023/06/29 09:14:44;;;;;;;17.35;14.00;;;24.50;99.90;;;;;;5025157;28;20034;-43
2023/06/29 09:17:14;;;;;;;17.27;14.68;;;24.50;99.90;;;;;;5024269;28;20037;-42
2023/06/29 09:19:43;;;;;;;16.88;13.27;;;24.60;99.90;;;;;;5024849;28;20025;-42
2023/06/29 09:22:09;;;;;;;16.73;13.45;;;24.60;99.90;;;;;;5025109;28;20030;-42
2023/06/29 09:24:35;;;;;;;18.20;13.63;;;24.60;99.90;;;;;;5024493;28;20444;-43
2023/06/29 09:27:01;;;;;;;16.83;14.02;;;24.60;99.90;;;;;;5025112;28;20024;-47
2023/06/29 09:29:29;;;;;;;16.02;13.93;;;24.70;99.90;;;;;;5025190;28;20044;-42
2023/06/29 09:31:56;;;;;;;15.35;12.65;;;24.70;99.90;;;;;;5023779;28;20022;-42
2023/06/29 09:34:25;;;;;;;15.88;12.77;;;24.80;99.90;;;;;;5024090;28;20501;-43
2023/06/29 09:36:51;;;;;;;16.58;12.77;;;24.90;99.90;;;;;;5025054;28;20539;-43
2023/06/29 09:39:17;;;;;;;14.85;12.02;;;25.00;99.90;;;;;;5023737;28;20049;-42
2023/06/29 09:41:54;;;;;;;16.25;13.50;;;25.20;99.90;;;;;;5025395;28;20037;-42
2023/06/29 09:44:23;;;;;;;16.73;13.02;;;25.40;99.90;;;;;;5024991;28;20040;-42
2023/06/29 09:46:49;;;;;;;14.93;12.65;;;25.40;99.90;;;;;;5024061;28;20025;-43
2023/06/29 09:49:15;;;;;;;17.98;13.48;;;25.50;99.90;;;;;;5023973;28;20485;-42
2023/06/29 09:51:41;;;;;;;15.73;13.65;;;25.60;99.90;;;;;;5024415;28;20041;-42
2023/06/29 09:54:15;;;;;;;18.25;14.48;;;25.60;99.90;;;;;;5023871;28;20128;-41
2023/06/29 09:56:41;;;;;;;17.88;14.65;;;25.70;99.90;;;;;;5023944;28;20050;-42
2023/06/29 09:59:13;;;;;;;20.05;14.05;;;25.70;99.90;;;;;;5023708;28;20351;-42
2023/06/29 10:01:40;;;;;;;17.65;14.30;;;25.80;99.90;;;;;;5025181;28;20039;-42
2023/06/29 10:04:06;;;;;;;15.70;13.40;;;25.80;99.90;;;;;;5024028;28;20105;-43
2023/06/29 10:06:47;;;;;;;19.65;14.88;;;25.80;99.90;;;;;;5023714;28;20026;-43
2023/06/29 10:09:16;;;;;;;17.15;13.93;;;25.80;99.90;;;;;;5023722;28;20056;-43
2023/06/29 10:11:44;;;;;;;17.88;14.00;;;25.80;99.90;;;;;;5023019;28;20029;-42
2023/06/29 10:14:14;;;;;;;19.70;14.93;;;25.80;99.90;;;;;;5021643;28;20105;-42
2023/06/29 10:16:44;;;;;;;17.98;14.18;;;25.90;99.90;;;;;;5023342;28;20563;-41
2023/06/29 10:19:18;;;;;;;17.02;14.10;;;25.80;99.90;;;;;;5023442;28;20466;-44
2023/06/29 10:21:45;;;;;;;19.85;12.35;;;25.90;99.90;;;;;;5022581;28;20143;-44
2023/06/29 10:24:15;;;;;;;19.00;14.18;;;25.90;99.90;;;;;;5023049;28;20033;-43
2023/06/29 10:26:41;;;;;;;16.60;13.70;;;25.90;99.90;;;;;;5023765;28;20564;-43
2023/06/29 10:29:09;;;;;;;16.45;13.90;;;26.00;99.90;;;;;;5022798;28;20034;-43
2023/06/29 10:31:34;;;;;;;18.80;13.13;;;26.00;99.90;;;;;;5023541;28;20029;-41
2023/06/29 10:34:01;;;;;;;15.25;12.52;;;26.10;99.90;;;;;;5023342;28;20021;-42
2023/06/29 10:36:42;;;;;;;14.30;12.25;;;26.20;99.90;;;;;;5022450;28;20025;-43
2023/06/29 10:39:42;;;;;;;14.48;12.73;;;26.40;99.90;;;;;;5023046;28;20044;-42
2023/06/29 10:42:22;;;;;;;14.85;12.82;;;26.50;99.90;;;;;;5013216;28;20083;-42
2023/06/29 10:44:54;;;;;;;14.52;12.20;;;26.60;99.90;;;;;;5023009;28;20499;-42
2023/06/29 10:47:38;;;;;;;14.65;12.20;;;26.70;99.80;;;;;;5022853;28;20039;-43
2023/06/29 10:50:09;;;;;;;14.20;11.73;;;26.70;99.70;;;;;;5022535;28;20041;-42
2023/06/29 10:52:39;;;;;;;16.85;12.63;;;26.80;99.80;;;;;;5023708;28;20060;-42
2023/06/29 10:55:18;;;;;;;16.10;12.90;;;26.80;98.90;;;;;;5023442;28;20021;-42
2023/06/29 10:57:51;;;;;;;13.98;12.30;;;26.90;98.90;;;;;;5023067;28;20786;-43
2023/06/29 11:00:18;;;;;;;15.05;12.40;;;26.90;98.90;;;;;;5022684;28;20034;-42
2023/06/29 11:02:46;;;;;;;15.52;13.00;;;27.00;98.80;;;;;;5022184;28;20025;-43
2023/06/29 11:05:16;;;;;;;15.38;13.25;;;26.90;98.40;;;;;;5022917;28;20033;-43
2023/06/29 11:07:43;;;;;;;14.02;12.13;;;27.00;98.40;;;;;;5023561;28;20064;-42
2023/06/29 11:10:21;;;;;;;14.60;12.77;;;26.90;98.40;;;;;;5022401;28;20038;-42
2023/06/29 11:12:49;;;;;;;16.80;12.70;;;26.90;98.40;;;;;;5024246;28;20100;-41
2023/06/29 11:15:16;;;;;;;15.13;12.50;;;27.00;98.20;;;;;;5023450;28;20030;-43
2023/06/29 11:17:43;;;;;;;13.55;11.25;;;27.00;98.20;;;;;;5019218;28;20033;-42
2023/06/29 11:20:13;;;;;;;14.40;12.50;;;27.00;98.20;;;;;;5024078;28;20029;-42
2023/06/29 11:22:39;;;;;;;14.82;12.13;;;27.00;97.90;;;;;;5023424;28;20021;-42
2023/06/29 11:25:11;;;;;;;15.05;12.77;;;27.00;97.90;;;;;;5023013;28;20021;-42
2023/06/29 11:27:37;;;;;;;14.50;12.73;;;26.90;97.10;;;;;;5024118;28;20026;-42
2023/06/29 11:30:07;;;;;;;16.58;13.35;;;26.90;97.20;;;;;;5023728;28;20044;-43
2023/06/29 11:32:34;;;;;;;16.83;14.55;;;27.00;97.20;;;;;;5023393;28;20084;-41
2023/06/29 11:35:01;;;;;;;20.67;14.25;;;27.00;96.90;;;;;;5023906;28;20025;-43
2023/06/29 11:37:27;;;;;;;18.58;14.35;;;27.00;96.60;;;;;;5022725;28;20029;-42
2023/06/29 11:39:56;;;;;;;17.77;14.63;;;27.00;96.60;;;;;;5024078;28;20086;-43
2023/06/29 11:42:23;;;;;;;18.00;14.23;;;27.00;96.30;;;;;;5023806;28;20021;-42
2023/06/29 11:45:09;;;;;;;18.63;15.23;;;27.00;96.30;;;;;;5023800;28;20656;-43
2023/06/29 11:47:35;;;;;;;16.80;14.23;;;27.00;96.30;;;;;;5012306;28;20040;-42
2023/06/29 11:50:04;;;;;;;17.95;13.85;;;27.10;96.40;;;;;;5026883;28;20032;-42
2023/06/29 11:52:33;;;;;;;17.48;14.48;;;27.20;96.30;;;;;;5027223;28;20029;-42
2023/06/29 11:55:04;;;;;;;17.85;14.80;;;27.30;96.40;;;;;;5027432;28;20362;-42
2023/06/29 11:57:33;;;;;;;27.50;21.30;;;27.40;96.30;;;;;;5026640;28;20081;-42
2023/06/29 12:00:00;;;;;;;21.48;17.77;;;27.40;96.00;;;;;;5026788;28;20033;-43
2023/06/29 12:02:27;;;;;;;20.15;16.73;;;27.50;96.20;;;;;;5026672;28;20025;-43
2023/06/29 12:04:56;;;;;;;20.05;16.15;;;27.50;96.10;;;;;;5027460;28;20101;-44
2023/06/29 12:07:41;;;;;;;18.70;14.70;;;27.60;96.10;;;;;;5026331;28;20025;-42
2023/06/29 12:10:08;;;;;;;17.90;15.98;;;27.60;96.30;;;;;;5017195;28;20036;-42
2023/06/29 12:12:45;;;;;;;18.27;14.95;;;27.70;95.80;;;;;;5025094;28;20648;-42
2023/06/29 12:15:15;;;;;;;19.20;15.57;;;27.60;95.70;;;;;;5016832;28;20017;-42
2023/06/29 12:17:41;;;;;;;20.40;16.70;;;27.60;95.60;;;;;;5026372;28;20516;-42
2023/06/29 12:20:14;;;;;;;20.63;15.85;;;27.50;95.10;;;;;;5025574;28;20021;-41
2023/06/29 12:22:40;;;;;;;20.00;16.42;;;27.40;95.10;;;;;;5026289;28;20112;-42
2023/06/29 12:25:12;;;;;;;17.13;14.93;;;27.40;95.30;;;;;;5026274;28;20017;-42
2023/06/29 12:27:41;;;;;;;19.23;15.65;;;27.40;95.30;;;;;;5025765;28;20481;-42
2023/06/29 12:30:20;;;;;;;18.95;15.98;;;27.40;95.40;;;;;;5026216;28;20037;-42